createdAt,value
2022-12-27T00:02:01.305Z,105.31
2022-12-27T00:04:28.479Z,105.53
2022-12-27T00:06:55.593Z,105.82
2022-12-27T00:09:22.857Z,105.66
2022-12-27T00:11:53.601Z,105.60
2022-12-27T00:14:23.276Z,105.57
2022-12-27T00:16:50.118Z,105.85
2022-12-27T00:19:17.007Z,105.76
2022-12-27T00:21:43.808Z,105.99
2022-12-27T00:24:11.259Z,106.17
2022-12-27T00:26:41.844Z,106.24
2022-12-27T00:29:09.851Z,106.13
2022-12-27T00:31:37.022Z,105.93
2022-12-27T00:34:07.262Z,106.15
2022-12-27T00:36:34.669Z,106.03
2022-12-27T00:39:02.549Z,105.85
2022-12-27T00:41:29.475Z,105.66
2022-12-27T00:43:56.512Z,105.93
2022-12-27T00:46:23.381Z,105.93
2022-12-27T00:48:50.153Z,106.07
2022-12-27T00:51:20.330Z,106.14
2022-12-27T00:53:47.817Z,106.03
2022-12-27T00:56:24.723Z,105.91
2022-12-27T00:59:00.377Z,105.84
2022-12-27T01:01:29.689Z,105.69
2022-12-27T01:03:57.781Z,106.05
2022-12-27T01:06:28.917Z,105.99
2022-12-27T01:08:57.047Z,106.25
2022-12-27T01:11:24.637Z,106.21
2022-12-27T01:13:51.407Z,106.40
2022-12-27T01:16:21.950Z,106.56
2022-12-27T01:18:49.669Z,106.64
2022-12-27T01:21:19.069Z,106.50
2022-12-27T01:23:46.759Z,106.69
2022-12-27T01:26:18.574Z,106.66
2022-12-27T01:28:46.422Z,106.70
2022-12-27T01:31:16.341Z,106.79
2022-12-27T01:33:43.379Z,106.69
2022-12-27T01:36:19.865Z,106.69
2022-12-27T01:38:50.600Z,107.02
2022-12-27T01:41:43.383Z,106.90
2022-12-27T01:44:35.121Z,106.82
2022-12-27T01:47:04.358Z,107.00
2022-12-27T01:49:31.891Z,107.24
2022-12-27T01:51:58.890Z,107.26
2022-12-27T01:54:25.800Z,107.11
2022-12-27T01:56:54.366Z,107.05
2022-12-27T01:59:21.720Z,107.08
2022-12-27T02:01:49.365Z,107.14
2022-12-27T02:04:19.689Z,107.27
2022-12-27T02:06:47.948Z,107.26
2022-12-27T02:09:20.910Z,107.06
2022-12-27T02:11:51.957Z,107.18
2022-12-27T02:14:27.623Z,107.11
2022-12-27T02:16:57.434Z,107.57
2022-12-27T02:19:36.299Z,107.51
2022-12-27T02:22:32.236Z,107.61
2022-12-27T02:25:16.468Z,107.62
2022-12-27T02:28:03.531Z,107.61
2022-12-27T02:30:33.651Z,107.83
2022-12-27T02:33:03.408Z,107.97
2022-12-27T02:35:41.698Z,108.07
2022-12-27T02:38:23.459Z,107.94
2022-12-27T02:41:10.341Z,108.05
2022-12-27T02:43:55.410Z,108.08
2022-12-27T02:46:44.035Z,108.29
2022-12-27T02:49:48.857Z,108.09
2022-12-27T02:52:57.818Z,108.23
2022-12-27T02:55:37.220Z,107.86
2022-12-27T02:58:25.226Z,107.65
2022-12-27T03:01:19.995Z,107.46
2022-12-27T03:04:04.181Z,107.30
2022-12-27T03:06:48.613Z,107.38
2022-12-27T03:10:04.017Z,107.23
2022-12-27T03:13:01.835Z,107.09
2022-12-27T03:16:09.363Z,106.94
2022-12-27T03:18:56.739Z,106.91
2022-12-27T03:21:50.303Z,107.28
2022-12-27T03:24:43.275Z,107.11
2022-12-27T03:27:18.499Z,107.13
2022-12-27T03:30:11.014Z,107.04
2022-12-27T03:33:13.116Z,106.75
2022-12-27T03:36:05.730Z,106.61
2022-12-27T03:38:36.610Z,106.65
2022-12-27T03:41:25.688Z,106.58
2022-12-27T03:43:52.575Z,106.68
2022-12-27T03:46:34.011Z,106.27
2022-12-27T03:49:06.859Z,106.69
2022-12-27T03:51:39.493Z,106.72
2022-12-27T03:54:13.373Z,106.98
2022-12-27T03:56:42.591Z,106.64
2022-12-27T03:59:12.320Z,106.56
2022-12-27T04:01:39.452Z,107.20
2022-12-27T04:04:06.219Z,107.16
2022-12-27T04:06:32.991Z,107.48
2022-12-27T04:09:18.275Z,107.62
2022-12-27T04:12:03.569Z,107.88
2022-12-27T04:14:48.735Z,108.33
2022-12-27T04:17:35.132Z,108.34
2022-12-27T04:20:20.607Z,108.37
2022-12-27T04:23:05.973Z,108.17
2022-12-27T04:25:51.610Z,108.46
2022-12-27T04:28:36.922Z,108.27
2022-12-27T04:31:22.283Z,107.95
2022-12-27T04:34:07.432Z,107.74
2022-12-27T04:36:34.330Z,107.45
2022-12-27T04:39:01.100Z,107.15
2022-12-27T04:41:46.168Z,106.66
2022-12-27T04:44:31.441Z,106.43
2022-12-27T04:47:16.881Z,106.02
2022-12-27T04:50:02.334Z,106.15
2022-12-27T04:52:47.969Z,105.93
2022-12-27T04:55:18.260Z,106.01
2022-12-27T04:57:45.145Z,105.63
2022-12-27T05:00:31.108Z,105.95
2022-12-27T05:02:58.355Z,105.54
2022-12-27T05:05:25.753Z,105.49
2022-12-27T05:08:11.594Z,105.65
2022-12-27T05:10:56.850Z,105.55
2022-12-27T05:13:42.257Z,105.58
2022-12-27T05:16:09.138Z,105.75
2022-12-27T05:18:36.652Z,105.66
2022-12-27T05:21:07.329Z,105.88
2022-12-27T05:23:53.670Z,106.20
2022-12-27T05:26:26.633Z,106.39
2022-12-27T05:28:55.821Z,106.58
2022-12-27T05:31:24.801Z,106.34
2022-12-27T05:33:52.556Z,106.77
2022-12-27T05:36:20.433Z,106.92
2022-12-27T05:38:47.414Z,107.11
2022-12-27T05:41:14.723Z,106.85
2022-12-27T05:43:41.594Z,106.62
2022-12-27T05:46:20.390Z,106.40
2022-12-27T05:48:47.837Z,106.43
2022-12-27T05:51:16.128Z,106.46
2022-12-27T05:53:43.636Z,106.20
2022-12-27T05:56:15.268Z,105.74
2022-12-27T05:58:42.710Z,105.55
2022-12-27T06:01:11.608Z,105.75
2022-12-27T06:03:38.915Z,105.64
2022-12-27T06:06:08.038Z,105.59
2022-12-27T06:08:35.711Z,105.15
2022-12-27T06:11:17.544Z,104.93
2022-12-27T06:13:50.085Z,105.28
2022-12-27T06:16:16.756Z,105.16
2022-12-27T06:18:43.542Z,105.18
2022-12-27T06:21:16.212Z,105.28
2022-12-27T06:23:47.479Z,105.68
2022-12-27T06:26:17.619Z,105.76
2022-12-27T06:28:44.377Z,106.53
2022-12-27T06:31:11.442Z,106.84
2022-12-27T06:33:38.477Z,107.62
2022-12-27T06:36:13.829Z,107.94
2022-12-27T06:38:41.270Z,108.04
2022-12-27T06:41:10.627Z,107.43
2022-12-27T06:43:38.379Z,107.91
2022-12-27T06:46:12.333Z,107.02
2022-12-27T06:48:42.513Z,105.85
2022-12-27T06:51:11.349Z,105.71
2022-12-27T06:53:38.441Z,104.99
2022-12-27T06:56:10.232Z,105.13
2022-12-27T06:58:37.537Z,105.23
2022-12-27T07:01:12.493Z,105.61
2022-12-27T07:03:40.043Z,106.08
2022-12-27T07:06:08.709Z,106.06
2022-12-27T07:08:36.364Z,105.90
2022-12-27T07:11:06.324Z,106.03
2022-12-27T07:13:38.593Z,106.37
2022-12-27T07:16:06.338Z,106.37
2022-12-27T07:18:33.756Z,106.50
2022-12-27T07:21:05.192Z,106.27
2022-12-27T07:23:32.444Z,105.79
2022-12-27T07:26:08.244Z,105.15
2022-12-27T07:28:35.055Z,105.08
2022-12-27T07:31:10.551Z,104.75
2022-12-27T07:33:38.264Z,104.25
2022-12-27T07:36:09.578Z,104.37
2022-12-27T07:38:36.627Z,104.88
2022-12-27T07:41:03.711Z,104.68
2022-12-27T07:43:32.087Z,104.56
2022-12-27T07:46:12.639Z,104.42
2022-12-27T07:48:40.448Z,104.59
2022-12-27T07:51:07.611Z,104.95
2022-12-27T07:53:35.213Z,105.03
2022-12-27T07:56:10.501Z,105.02
2022-12-27T07:58:42.322Z,105.65
2022-12-27T08:01:10.228Z,105.59
2022-12-27T08:03:38.036Z,105.48
2022-12-27T08:06:05.717Z,106.11
2022-12-27T08:08:42.475Z,105.88
2022-12-27T08:11:09.727Z,105.81
2022-12-27T08:13:37.148Z,105.84
2022-12-27T08:16:04.517Z,105.53
2022-12-27T08:18:31.310Z,105.93
2022-12-27T08:20:58.066Z,106.01
2022-12-27T08:23:24.726Z,106.04
2022-12-27T08:25:51.538Z,106.03
2022-12-27T08:28:18.803Z,105.87
2022-12-27T08:30:46.812Z,105.68
2022-12-27T08:33:15.119Z,105.75
2022-12-27T08:35:54.393Z,105.77
2022-12-27T08:38:21.772Z,105.22
2022-12-27T08:40:48.527Z,104.84
2022-12-27T08:43:15.496Z,105.15
2022-12-27T08:45:42.558Z,105.15
2022-12-27T08:48:09.517Z,104.95
2022-12-27T08:50:36.495Z,104.70
2022-12-27T08:53:06.977Z,104.89
2022-12-27T08:55:34.626Z,104.93
2022-12-27T08:58:04.934Z,105.53
2022-12-27T09:00:33.845Z,105.62
2022-12-27T09:03:00.611Z,104.60
2022-12-27T09:05:28.195Z,104.30
2022-12-27T09:07:55.311Z,104.41
2022-12-27T09:10:23.526Z,104.34
2022-12-27T09:12:50.975Z,104.63
2022-12-27T09:15:17.722Z,104.38
2022-12-27T09:17:44.721Z,103.58
2022-12-27T09:20:12.560Z,102.23
2022-12-27T09:22:39.850Z,101.52
2022-12-27T09:25:07.695Z,101.17
2022-12-27T09:27:36.334Z,99.13
2022-12-27T09:30:08.505Z,99.66
2022-12-27T09:32:35.799Z,101.03
2022-12-27T09:35:03.710Z,101.64
2022-12-27T09:37:31.524Z,100.96
2022-12-27T09:39:58.213Z,101.42
2022-12-27T09:42:59.621Z,101.12
2022-12-27T09:45:33.908Z,101.24
2022-12-27T09:48:15.407Z,97.09
2022-12-27T09:50:54.880Z,97.25
2022-12-27T09:53:47.637Z,93.54
2022-12-27T09:56:24.296Z,92.30
2022-12-27T09:58:54.279Z,93.88
2022-12-27T10:01:25.672Z,94.27
2022-12-27T10:03:53.218Z,94.07
2022-12-27T10:06:49.815Z,93.58
2022-12-27T10:09:36.158Z,93.34
2022-12-27T10:12:17.960Z,93.88
2022-12-27T10:15:03.102Z,94.24
2022-12-27T10:17:53.821Z,94.73
2022-12-27T10:20:32.713Z,93.97
2022-12-27T10:23:21.098Z,93.74
2022-12-27T10:25:53.138Z,95.24
2022-12-27T10:28:29.185Z,95.39
2022-12-27T10:30:56.229Z,95.41
2022-12-27T10:33:29.299Z,94.86
2022-12-27T10:35:57.660Z,94.81
2022-12-27T10:38:25.297Z,94.13
2022-12-27T10:41:02.526Z,94.73
2022-12-27T10:43:37.668Z,94.46
2022-12-27T10:46:13.460Z,92.55
2022-12-27T10:49:19.443Z,92.29
2022-12-27T10:51:35.824Z,91.98
2022-12-27T10:54:05.582Z,92.48
2022-12-27T10:56:38.865Z,93.08
2022-12-27T10:59:21.778Z,92.46
2022-12-27T11:02:10.546Z,90.78
2022-12-27T11:04:54.912Z,90.34
2022-12-27T11:07:22.014Z,88.87
2022-12-27T11:09:51.370Z,88.12
2022-12-27T11:12:25.788Z,88.42
2022-12-27T11:15:00.265Z,88.35
2022-12-27T11:17:37.647Z,89.71
2022-12-27T11:20:24.467Z,89.03
2022-12-27T11:22:55.065Z,89.12
2022-12-27T11:25:22.503Z,88.28
2022-12-27T11:27:52.409Z,88.89
2022-12-27T11:30:30.025Z,91.06
2022-12-27T11:33:00.328Z,92.27
2022-12-27T11:35:27.258Z,92.01
2022-12-27T11:37:57.949Z,92.27
2022-12-27T11:40:34.777Z,94.07
2022-12-27T11:43:10.527Z,93.56
2022-12-27T11:45:42.410Z,92.66
2022-12-27T11:48:28.031Z,94.12
2022-12-27T11:51:19.230Z,93.86
2022-12-27T11:54:18.259Z,92.21
2022-12-27T11:56:52.058Z,91.00
2022-12-27T11:59:25.435Z,93.48
2022-12-27T12:01:55.169Z,95.46
2022-12-27T12:04:47.000Z,96.31
2022-12-27T12:07:38.614Z,95.77
2022-12-27T12:10:33.860Z,95.83
2022-12-27T12:13:09.096Z,95.76
2022-12-27T12:15:42.701Z,96.72
2022-12-27T12:18:45.012Z,96.55
2022-12-27T12:21:41.562Z,96.07
2022-12-27T12:24:45.660Z,96.32
2022-12-27T12:27:18.394Z,97.15
2022-12-27T12:30:27.300Z,97.13
2022-12-27T12:32:54.200Z,97.15
2022-12-27T12:36:06.282Z,97.73
2022-12-27T12:38:43.812Z,97.66
2022-12-27T12:41:48.314Z,97.51
2022-12-27T12:44:41.829Z,98.49
2022-12-27T12:47:44.242Z,98.90
2022-12-27T12:50:36.223Z,98.05
2022-12-27T12:53:18.254Z,98.39
2022-12-27T12:56:12.047Z,97.87
2022-12-27T12:58:49.392Z,97.38
2022-12-27T13:01:33.707Z,96.68
2022-12-27T13:04:01.257Z,96.07
2022-12-27T13:06:56.765Z,95.50
2022-12-27T13:09:29.551Z,94.03
2022-12-27T13:12:05.804Z,94.60
2022-12-27T13:15:08.715Z,95.15
2022-12-27T13:18:07.697Z,95.26
2022-12-27T13:20:53.414Z,95.46
2022-12-27T13:23:38.775Z,96.43
2022-12-27T13:26:24.073Z,96.36
2022-12-27T13:29:27.126Z,95.92
2022-12-27T13:32:33.584Z,96.29
2022-12-27T13:35:20.411Z,96.23
2022-12-27T13:38:12.551Z,97.65
2022-12-27T13:41:10.307Z,98.35
2022-12-27T13:43:51.141Z,98.83
2022-12-27T13:46:43.288Z,99.26
2022-12-27T13:49:41.733Z,99.55
2022-12-27T13:52:35.976Z,100.38
2022-12-27T13:55:26.602Z,100.84
2022-12-27T13:58:12.240Z,101.23
2022-12-27T14:00:54.552Z,101.29
2022-12-27T14:03:30.609Z,101.98
2022-12-27T14:06:16.408Z,101.73
2022-12-27T14:08:55.383Z,101.30
2022-12-27T14:11:54.600Z,102.04
2022-12-27T14:14:24.088Z,102.18
2022-12-27T14:17:07.181Z,102.24
2022-12-27T14:19:53.053Z,102.47
2022-12-27T14:22:40.664Z,101.77
2022-12-27T14:25:25.607Z,102.30
2022-12-27T14:28:24.191Z,102.66
2022-12-27T14:31:20.066Z,102.80
2022-12-27T14:34:05.796Z,102.77
2022-12-27T14:37:03.667Z,102.69
2022-12-27T14:39:57.658Z,103.05
2022-12-27T14:42:46.656Z,102.80
2022-12-27T14:45:25.603Z,102.76
2022-12-27T14:48:10.760Z,102.76
2022-12-27T14:50:43.839Z,102.68
2022-12-27T14:53:30.574Z,102.51
2022-12-27T14:56:36.885Z,102.99
2022-12-27T14:59:24.272Z,103.32
2022-12-27T15:02:21.259Z,103.47
2022-12-27T15:05:04.198Z,103.15
2022-12-27T15:07:30.941Z,103.02
2022-12-27T15:10:07.373Z,103.21
2022-12-27T15:12:46.238Z,103.54
2022-12-27T15:15:31.660Z,103.41
2022-12-27T15:18:10.748Z,103.63
2022-12-27T15:21:18.065Z,103.37
2022-12-27T15:23:53.893Z,103.38
2022-12-27T15:26:20.971Z,103.69
2022-12-27T15:29:09.886Z,103.50
2022-12-27T15:31:46.265Z,103.64
2022-12-27T15:34:13.060Z,103.89
2022-12-27T15:36:43.229Z,103.92
2022-12-27T15:39:33.234Z,103.80
2022-12-27T15:42:40.708Z,104.24
2022-12-27T15:45:29.470Z,104.14
2022-12-27T15:48:02.190Z,104.31
2022-12-27T15:51:03.708Z,104.34
2022-12-27T15:53:33.604Z,104.47
2022-12-27T15:56:22.575Z,104.20
2022-12-27T15:59:27.430Z,104.53
2022-12-27T16:02:33.362Z,104.44
2022-12-27T16:05:11.924Z,104.79
2022-12-27T16:07:38.663Z,104.86
2022-12-27T16:10:30.604Z,104.72
2022-12-27T16:13:09.807Z,104.79
2022-12-27T16:15:50.965Z,104.68
2022-12-27T16:18:23.919Z,104.82
2022-12-27T16:20:53.884Z,104.89
2022-12-27T16:23:26.734Z,104.71
2022-12-27T16:26:09.570Z,104.76
2022-12-27T16:28:37.828Z,104.82
2022-12-27T16:31:11.947Z,104.81
2022-12-27T16:33:41.004Z,104.90
2022-12-27T16:36:21.890Z,105.08
2022-12-27T16:39:16.656Z,105.15
2022-12-27T16:41:58.444Z,105.26
2022-12-27T16:44:25.305Z,105.38
2022-12-27T16:47:04.250Z,105.68
2022-12-27T16:49:31.006Z,105.31
2022-12-27T16:52:18.602Z,105.74
2022-12-27T16:54:54.795Z,105.94
2022-12-27T16:57:33.636Z,105.96
2022-12-27T17:00:35.532Z,106.26
2022-12-27T17:03:21.302Z,106.53
2022-12-27T17:06:21.536Z,106.71
2022-12-27T17:08:37.067Z,106.60
2022-12-27T17:11:27.201Z,106.70
2022-12-27T17:13:58.742Z,106.85
2022-12-27T17:16:29.948Z,106.91
2022-12-27T17:19:01.984Z,106.81
2022-12-27T17:21:32.714Z,107.09
2022-12-27T17:24:21.282Z,107.22
2022-12-27T17:27:03.310Z,107.57
2022-12-27T17:29:42.884Z,107.68
2022-12-27T17:32:47.498Z,107.95
2022-12-27T17:35:35.460Z,108.23
2022-12-27T17:38:26.856Z,108.44
2022-12-27T17:41:02.732Z,108.46
2022-12-27T17:43:59.965Z,108.46
2022-12-27T17:46:44.252Z,108.66
2022-12-27T17:49:11.820Z,108.65
2022-12-27T17:52:01.896Z,108.50
2022-12-27T17:54:48.290Z,108.72
2022-12-27T17:57:36.081Z,108.62
2022-12-27T18:00:04.977Z,108.85
2022-12-27T18:02:38.491Z,108.74
2022-12-27T18:05:11.293Z,108.63
2022-12-27T18:07:39.027Z,108.74
2022-12-27T18:10:16.513Z,108.77
2022-12-27T18:12:48.855Z,108.70
2022-12-27T18:15:21.380Z,108.78
2022-12-27T18:17:58.076Z,108.94
2022-12-27T18:20:28.114Z,109.20
2022-12-27T18:23:01.012Z,109.06
2022-12-27T18:25:37.729Z,109.23
2022-12-27T18:28:15.042Z,109.26
2022-12-27T18:30:46.830Z,109.04
2022-12-27T18:33:16.039Z,109.33
2022-12-27T18:35:47.684Z,109.69
2022-12-27T18:38:29.748Z,109.49
2022-12-27T18:41:19.006Z,109.77
2022-12-27T18:43:50.222Z,110.07
2022-12-27T18:46:26.415Z,110.12
2022-12-27T18:48:53.609Z,110.26
2022-12-27T18:51:20.514Z,110.36
2022-12-27T18:53:47.440Z,110.24
2022-12-27T18:56:14.140Z,110.42
2022-12-27T18:58:41.664Z,110.58
2022-12-27T19:01:20.784Z,110.59
2022-12-27T19:04:26.796Z,110.65
2022-12-27T19:07:07.817Z,110.79
2022-12-27T19:09:48.929Z,111.00
2022-12-27T19:12:37.889Z,111.19
2022-12-27T19:15:16.312Z,111.30
2022-12-27T19:17:47.650Z,111.32
2022-12-27T19:20:28.265Z,111.26
2022-12-27T19:22:57.377Z,111.46
2022-12-27T19:25:25.687Z,111.39
2022-12-27T19:27:59.915Z,111.53
2022-12-27T19:31:07.208Z,111.45
2022-12-27T19:33:35.647Z,111.40
2022-12-27T19:36:06.462Z,111.61
2022-12-27T19:38:34.512Z,111.87
2022-12-27T19:41:04.064Z,111.82
2022-12-27T19:43:40.055Z,111.79
2022-12-27T19:46:06.884Z,111.77
2022-12-27T19:48:33.911Z,112.14
2022-12-27T19:51:00.768Z,112.06
2022-12-27T19:53:34.197Z,112.04
2022-12-27T19:56:02.987Z,112.11
2022-12-27T19:58:30.816Z,112.26
2022-12-27T20:00:58.193Z,112.35
2022-12-27T20:03:25.528Z,112.25
2022-12-27T20:06:12.384Z,112.29
2022-12-27T20:08:48.341Z,112.32
2022-12-27T20:11:18.931Z,112.33
2022-12-27T20:13:46.360Z,112.60
2022-12-27T20:16:15.998Z,112.51
2022-12-27T20:18:43.740Z,112.61
2022-12-27T20:21:17.252Z,112.64
2022-12-27T20:23:46.419Z,112.70
2022-12-27T20:26:16.612Z,112.84
2022-12-27T20:28:43.539Z,112.94
2022-12-27T20:31:14.353Z,113.15
2022-12-27T20:33:41.622Z,113.31
2022-12-27T20:36:09.432Z,113.28
2022-12-27T20:38:39.299Z,113.30
2022-12-27T20:41:07.969Z,113.26
2022-12-27T20:43:35.723Z,113.34
2022-12-27T20:46:10.559Z,113.03
2022-12-27T20:48:39.659Z,112.75
2022-12-27T20:51:12.683Z,112.91
2022-12-27T20:53:39.585Z,112.93
2022-12-27T20:56:08.924Z,112.90
2022-12-27T20:58:36.289Z,112.90
2022-12-27T21:01:14.624Z,112.71
2022-12-27T21:03:42.308Z,112.87
2022-12-27T21:06:12.465Z,112.83
2022-12-27T21:08:46.645Z,112.95
2022-12-27T21:11:20.020Z,113.91
2022-12-27T21:13:48.763Z,113.87
2022-12-27T21:16:24.653Z,113.63
2022-12-27T21:18:52.713Z,113.53
2022-12-27T21:21:22.094Z,113.97
2022-12-27T21:23:49.959Z,114.17
2022-12-27T21:26:19.432Z,114.04
2022-12-27T21:28:47.310Z,113.71
2022-12-27T21:31:15.911Z,113.76
2022-12-27T21:33:43.108Z,113.84
2022-12-27T21:36:16.058Z,114.15
2022-12-27T21:38:43.657Z,114.21
2022-12-27T21:41:14.093Z,114.58
2022-12-27T21:43:41.857Z,114.78
2022-12-27T21:46:14.118Z,114.93
2022-12-27T21:48:41.343Z,115.03
2022-12-27T21:51:14.128Z,115.44
2022-12-27T21:53:41.849Z,115.72
2022-12-27T21:56:09.880Z,115.65
2022-12-27T21:58:38.187Z,116.07
2022-12-27T22:01:08.589Z,116.11
2022-12-27T22:03:38.168Z,116.19
2022-12-27T22:06:21.508Z,116.02
2022-12-27T22:08:51.151Z,116.06
2022-12-27T22:11:19.571Z,116.11
2022-12-27T22:13:46.613Z,115.77
2022-12-27T22:16:19.358Z,115.81
2022-12-27T22:18:47.049Z,115.65
2022-12-27T22:21:20.331Z,115.45
2022-12-27T22:23:49.483Z,115.53
2022-12-27T22:26:18.984Z,115.47
2022-12-27T22:28:46.394Z,115.25
2022-12-27T22:31:19.102Z,115.02
2022-12-27T22:33:46.264Z,115.26
2022-12-27T22:36:21.010Z,115.31
2022-12-27T22:38:50.323Z,115.27
2022-12-27T22:41:19.656Z,115.13
2022-12-27T22:43:51.893Z,114.99
2022-12-27T22:46:19.350Z,114.91
2022-12-27T22:48:57.866Z,115.15
2022-12-27T22:51:30.479Z,115.12
2022-12-27T22:53:58.768Z,115.10
2022-12-27T22:56:55.062Z,115.15
2022-12-27T22:59:22.376Z,115.16
2022-12-27T23:01:49.203Z,115.06
2022-12-27T23:04:16.098Z,115.17
2022-12-27T23:06:43.211Z,115.01
2022-12-27T23:09:10.419Z,115.10
2022-12-27T23:11:40.656Z,115.06
2022-12-27T23:14:12.571Z,114.88
2022-12-27T23:16:40.776Z,114.95
2022-12-27T23:19:09.050Z,115.00
2022-12-27T23:21:36.219Z,114.89
2022-12-27T23:24:03.329Z,114.86
2022-12-27T23:26:30.154Z,114.70
2022-12-27T23:28:57.049Z,114.83
2022-12-27T23:31:24.907Z,114.87
2022-12-27T23:33:52.878Z,114.64
2022-12-27T23:36:20.755Z,114.61
2022-12-27T23:38:48.549Z,114.51
2022-12-27T23:41:18.118Z,114.43
2022-12-27T23:43:54.556Z,114.45
2022-12-27T23:46:27.470Z,114.57
2022-12-27T23:48:57.046Z,114.57
2022-12-27T23:51:24.914Z,114.34
2022-12-27T23:53:52.137Z,114.48
2022-12-27T23:56:22.407Z,114.46
2022-12-27T23:58:51.218Z,114.55
